»·PEaware :: N751LU KPMD-KHIO

N751LU :: KPMD-KHIO

FLIGHT INFORMATION

Flight Status: Arrived
Operator: Privately registered:
United States
More flights under this callsign
Pilot: Ewen S. (18928)
Aircraft: EMBRAER PHENOM 300
(E55P)
More flights by this aircraft type
Origin: KPMD Palmdale AF Plant 42
United States
Destination: KHIO Portland-Hillsboro
United States
More flights between these airports :: More routes between these airports
Route: LHS LANDO J5 BAARB LMT OCITY3
File this flight plan on PilotEdge
Remarks:
Altitude:
(Current/Filed)
43,000ft
Speed:
(Current/Filed)
460kts
Departed: 26-Aug-21 10:56 AM
Arrived: 26-Aug-21 01:15 PM
Distance/Time
Traveled:
691nm/2:19
Distance/Time
To Go:
Arrived

Flight Plot

Page will automatically refresh every two minutes.

Flight plan parsing failed; only flown route is shown


Map Options




Map Legend


Flown Route
Filed Route
Departure Airport
Arrival Airport
Navaid (VOR, NDB)
Fix

Horizontal Profiles

Position Reports

Time Latitude Longitude Heading Altitude Ground
Speed
26-Aug-21 10:40 34.612035 -118.089818 90 2554ft 0kts
26-Aug-21 10:41 34.612035 -118.089818 90 2554ft 0kts
26-Aug-21 10:42 34.612035 -118.089818 90 2554ft 0kts
26-Aug-21 10:43 34.612035 -118.089818 90 2554ft 0kts
26-Aug-21 10:44 34.612035 -118.089818 90 2554ft 0kts
26-Aug-21 10:45 34.612035 -118.089818 90 2554ft 0kts
26-Aug-21 10:46 34.612035 -118.089818 90 2554ft 0kts
26-Aug-21 10:47 34.612035 -118.089818 90 2554ft 0kts
26-Aug-21 10:48 34.612035 -118.089818 90 2554ft 0kts
26-Aug-21 10:49 34.612035 -118.089818 90 2554ft 0kts
26-Aug-21 10:50 34.612035 -118.089818 90 2554ft 0kts
26-Aug-21 10:51 34.612035 -118.089818 90 2554ft 0kts
26-Aug-21 10:52 34.612035 -118.089818 90 2554ft 0kts
26-Aug-21 10:53 34.612415 -118.089545 348 2553ft 4kts
26-Aug-21 10:54 34.616592 -118.089542 358 2547ft 15kts
26-Aug-21 10:55 34.622263 -118.083407 52 2530ft 101kts
26-Aug-21 10:56 34.643941 -118.081428 270 3333ft 158kts
26-Aug-21 10:57 34.639226 -118.150531 272 4153ft 257kts
26-Aug-21 10:58 34.646552 -118.238733 277 7621ft 252kts
26-Aug-21 10:59 34.655769 -118.324149 276 10673ft 261kts
26-Aug-21 11:00 34.665312 -118.412512 276 13546ft 270kts
26-Aug-21 11:01 34.675480 -118.506984 276 14500ft 297kts
26-Aug-21 11:02 34.721183 -118.581573 353 14517ft 327kts
26-Aug-21 11:03 34.807003 -118.591731 352 17839ft 299kts
26-Aug-21 11:04 34.891014 -118.601797 352 20132ft 309kts
26-Aug-21 11:05 34.977437 -118.612182 352 22282ft 318kts
26-Aug-21 11:06 35.053847 -118.658801 319 24230ft 319kts
26-Aug-21 11:07 35.122950 -118.728371 319 26075ft 326kts
26-Aug-21 11:08 35.193041 -118.799484 319 27768ft 332kts
26-Aug-21 11:09 35.264359 -118.872062 319 29329ft 338kts
26-Aug-21 11:10 35.336819 -118.945985 319 30949ft 338kts
26-Aug-21 11:11 35.408661 -119.019470 319 32489ft 336kts
26-Aug-21 11:12 35.480342 -119.091508 331 33861ft 334kts
26-Aug-21 11:13 35.572200 -119.108534 351 35101ft 335kts
26-Aug-21 11:14 35.664321 -119.120783 350 36269ft 333kts
26-Aug-21 11:15 35.756376 -119.132933 350 37244ft 333kts
26-Aug-21 11:16 35.847874 -119.145011 349 38106ft 333kts
26-Aug-21 11:17 35.939754 -119.157163 349 38915ft 333kts
26-Aug-21 11:18 36.031613 -119.169393 349 39899ft 329kts
26-Aug-21 11:19 36.122737 -119.181466 349 40574ft 331kts
26-Aug-21 11:20 36.214428 -119.193670 349 41184ft 333kts
26-Aug-21 11:21 36.306133 -119.205891 349 41757ft 333kts
26-Aug-21 11:22 36.398347 -119.218238 349 42245ft 334kts
26-Aug-21 11:23 36.490441 -119.230590 349 42672ft 335kts
26-Aug-21 11:24 36.582928 -119.243023 349 43027ft 336kts
26-Aug-21 11:25 36.677459 -119.255780 349 43037ft 350kts
26-Aug-21 11:26 36.775882 -119.269077 349 43037ft 365kts
26-Aug-21 11:27 36.879147 -119.283068 349 43037ft 382kts
26-Aug-21 11:29 36.986911 -119.297709 350 43036ft 400kts
26-Aug-21 11:30 37.100086 -119.313123 350 43034ft 415kts
26-Aug-21 11:31 37.214121 -119.328682 350 43102ft 413kts
26-Aug-21 11:32 37.327793 -119.344260 350 43171ft 411kts
26-Aug-21 11:33 37.440859 -119.359815 350 43172ft 411kts
26-Aug-21 11:34 37.553898 -119.375396 350 43171ft 410kts
26-Aug-21 11:35 37.667160 -119.391068 350 43170ft 410kts
26-Aug-21 11:36 37.780094 -119.406740 350 43172ft 409kts
26-Aug-21 11:37 37.892707 -119.422404 350 43184ft 409kts
26-Aug-21 11:38 38.005409 -119.438142 350 43196ft 409kts
26-Aug-21 11:39 38.118345 -119.453940 350 43199ft 409kts
26-Aug-21 11:40 38.231169 -119.469791 350 43199ft 409kts
26-Aug-21 11:41 38.343553 -119.485622 350 43248ft 408kts
26-Aug-21 11:42 38.455882 -119.501498 350 43289ft 406kts
26-Aug-21 11:43 38.567822 -119.517369 350 43289ft 406kts
26-Aug-21 11:44 38.679458 -119.533235 349 43288ft 405kts
26-Aug-21 11:45 38.791327 -119.549214 349 43287ft 405kts
26-Aug-21 11:46 38.902813 -119.565163 349 43282ft 405kts
26-Aug-21 11:47 39.014696 -119.581228 349 43225ft 406kts
26-Aug-21 11:48 39.126965 -119.597408 349 43207ft 406kts
26-Aug-21 11:49 39.238742 -119.613553 349 43207ft 406kts
26-Aug-21 11:50 39.350953 -119.629815 349 43206ft 406kts
26-Aug-21 11:51 39.462678 -119.646075 349 43206ft 406kts
26-Aug-21 11:51 39.555530 -119.662892 344 43218ft 403kts
26-Aug-21 11:52 39.664878 -119.692845 344 43233ft 403kts
26-Aug-21 11:54 39.792676 -119.728125 344 43238ft 403kts
26-Aug-21 11:55 39.901556 -119.758290 344 43237ft 402kts
26-Aug-21 11:56 40.010930 -119.788693 344 43236ft 402kts
26-Aug-21 11:56 40.101527 -119.813949 344 43235ft 402kts
26-Aug-21 11:57 40.210668 -119.844469 344 43232ft 403kts
26-Aug-21 11:58 40.319854 -119.875097 343 43206ft 402kts
26-Aug-21 11:59 40.428883 -119.905786 343 43202ft 402kts
26-Aug-21 12:01 40.555827 -119.941645 343 43201ft 401kts
26-Aug-21 12:01 40.646337 -119.967291 343 43200ft 400kts
26-Aug-21 12:02 40.754946 -119.998167 343 43199ft 399kts
26-Aug-21 12:03 40.862918 -120.028980 343 43200ft 398kts
26-Aug-21 12:04 40.970705 -120.059866 343 43201ft 396kts
26-Aug-21 12:05 41.077707 -120.090622 343 43202ft 395kts
26-Aug-21 12:06 41.174951 -120.143835 310 43234ft 380kts
26-Aug-21 12:07 41.244071 -120.250822 310 43219ft 382kts
26-Aug-21 12:08 41.312181 -120.358699 310 43218ft 383kts
26-Aug-21 12:09 41.380568 -120.467679 310 43217ft 383kts
26-Aug-21 12:10 41.448479 -120.576322 309 43215ft 383kts
26-Aug-21 12:11 41.516354 -120.685322 309 43221ft 383kts
26-Aug-21 12:12 41.584245 -120.794722 309 43220ft 383kts
26-Aug-21 12:13 41.653421 -120.902466 309 43220ft 382kts
26-Aug-21 12:14 41.720863 -121.012022 309 43216ft 383kts
26-Aug-21 12:15 41.788174 -121.122258 309 43210ft 383kts
26-Aug-21 12:16 41.855362 -121.232758 309 43206ft 383kts
26-Aug-21 12:17 41.922595 -121.343756 309 43204ft 383kts
26-Aug-21 12:18 41.989379 -121.454422 309 43206ft 383kts
26-Aug-21 12:20 42.067305 -121.584067 309 43199ft 381kts
26-Aug-21 12:20 42.122509 -121.676263 308 43214ft 381kts
26-Aug-21 12:21 42.208626 -121.754527 335 43216ft 387kts
26-Aug-21 12:22 42.309648 -121.805325 336 43213ft 389kts
26-Aug-21 12:23 42.411059 -121.856057 336 43212ft 389kts
26-Aug-21 12:24 42.512408 -121.906885 336 43211ft 389kts
26-Aug-21 12:25 42.613232 -121.957606 335 43205ft 389kts
26-Aug-21 12:26 42.714291 -122.008636 335 43200ft 388kts
26-Aug-21 12:27 42.815048 -122.059687 335 43191ft 388kts
26-Aug-21 12:28 42.915953 -122.111003 335 43180ft 387kts
26-Aug-21 12:29 43.016370 -122.162225 335 43168ft 386kts
26-Aug-21 12:30 43.116751 -122.213625 335 43172ft 386kts
26-Aug-21 12:31 43.217079 -122.265188 335 40717ft 375kts
26-Aug-21 12:32 43.308595 -122.312323 335 38966ft 335kts
26-Aug-21 12:33 43.392035 -122.355443 334 37054ft 308kts
26-Aug-21 12:34 43.472804 -122.397421 334 35189ft 328kts
26-Aug-21 12:35 43.561497 -122.443571 335 33712ft 353kts
26-Aug-21 12:36 43.654729 -122.492214 335 32460ft 366kts
26-Aug-21 12:37 43.750852 -122.542533 335 31325ft 373kts
26-Aug-21 12:38 43.849446 -122.594361 335 29588ft 389kts
26-Aug-21 12:39 43.951906 -122.648393 335 27629ft 399kts
26-Aug-21 12:40 44.054912 -122.702843 334 25576ft 383kts
26-Aug-21 12:41 44.150448 -122.751250 346 24169ft 368kts
26-Aug-21 12:42 44.257128 -122.742569 357 24178ft 392kts
26-Aug-21 12:43 44.366984 -122.731774 357 24175ft 402kts
26-Aug-21 12:44 44.479098 -122.720651 357 24166ft 400kts
26-Aug-21 12:45 44.586703 -122.709931 357 23802ft 382kts
26-Aug-21 12:46 44.690916 -122.699535 357 22110ft 372kts
26-Aug-21 12:47 44.793099 -122.689301 358 20410ft 365kts
26-Aug-21 12:48 44.893023 -122.679214 358 18715ft 358kts
26-Aug-21 12:49 44.991376 -122.669262 359 17014ft 352kts
26-Aug-21 12:50 45.087830 -122.659469 359 15316ft 345kts
26-Aug-21 12:51 45.178671 -122.650152 359 14999ft 306kts
26-Aug-21 12:52 45.259374 -122.641916 359 14929ft 281kts
26-Aug-21 12:53 45.341210 -122.633601 0 13442ft 305kts
26-Aug-21 12:54 45.416755 -122.662745 302 11920ft 293kts
26-Aug-21 12:55 45.469104 -122.745259 312 10421ft 273kts
26-Aug-21 12:56 45.521565 -122.820677 313 8918ft 264kts
26-Aug-21 12:57 45.572931 -122.894411 313 7414ft 260kts
26-Aug-21 12:58 45.623279 -122.966845 313 6039ft 252kts
26-Aug-21 12:59 45.668321 -123.031788 313 6000ft 221kts
26-Aug-21 13:00 45.712743 -123.096039 313 6000ft 232kts
26-Aug-21 13:01 45.758455 -123.162281 313 5997ft 229kts
26-Aug-21 13:02 45.800462 -123.223286 312 5996ft 201kts
26-Aug-21 13:03 45.811581 -123.295506 276 5472ft 195kts
26-Aug-21 13:04 45.847186 -123.322268 57 4228ft 214kts
26-Aug-21 13:05 45.824657 -123.262030 143 3893ft 166kts
26-Aug-21 13:06 45.788260 -123.219631 144 3349ft 149kts
26-Aug-21 13:07 45.755923 -123.182244 144 3310ft 165kts
26-Aug-21 13:08 45.719909 -123.140640 144 3300ft 167kts
26-Aug-21 13:09 45.683773 -123.101408 145 3199ft 160kts
26-Aug-21 13:10 45.650288 -123.065686 145 2620ft 146kts
26-Aug-21 13:11 45.617890 -123.031427 145 1890ft 142kts
26-Aug-21 13:12 45.586894 -122.998757 144 1140ft 135kts
26-Aug-21 13:13 45.557177 -122.967284 145 410ft 131kts
26-Aug-21 13:14 45.538560 -122.949655 161 205ft 24kts
26-Aug-21 13:15 45.538110 -122.949328 147 204ft 1kts
26-Aug-21 13:16 45.534529 -122.947421 179 205ft 19kts
26-Aug-21 13:17 45.533776 -122.946564 86 204ft 0kts
26-Aug-21 13:18 45.533776 -122.946564 86 204ft 0kts
26-Aug-21 13:19 45.533776 -122.946564 86 204ft 0kts

Navigation Log

Ident Type
Flight plan parsing failed, navigation log unavailable